sensor_id;sensor_type;location;lat;lon;timestamp;P1;durP1;ratioP1;P2;durP2;ratioP2
21438;SDS011;10880;50.302;18.736;2023-05-10T00:02:16;2.63;;;2.43;;
21438;SDS011;10880;50.302;18.736;2023-05-10T00:05:13;2.30;;;2.10;;
21438;SDS011;10880;50.302;18.736;2023-05-10T00:07:50;2.93;;;2.60;;
21438;SDS011;10880;50.302;18.736;2023-05-10T00:10:45;2.60;;;2.40;;
21438;SDS011;10880;50.302;18.736;2023-05-10T00:13:18;2.50;;;2.30;;
21438;SDS011;10880;50.302;18.736;2023-05-10T00:16:11;2.20;;;2.00;;
21438;SDS011;10880;50.302;18.736;2023-05-10T00:18:45;2.57;;;2.37;;
21438;SDS011;10880;50.302;18.736;2023-05-10T00:21:38;2.60;;;2.17;;
21438;SDS011;10880;50.302;18.736;2023-05-10T00:24:11;2.40;;;2.20;;
21438;SDS011;10880;50.302;18.736;2023-05-10T00:27:04;2.40;;;2.20;;
21438;SDS011;10880;50.302;18.736;2023-05-10T00:29:37;3.07;;;2.37;;
21438;SDS011;10880;50.302;18.736;2023-05-10T00:32:30;1.97;;;1.87;;
21438;SDS011;10880;50.302;18.736;2023-05-10T00:35:04;2.50;;;2.30;;
21438;SDS011;10880;50.302;18.736;2023-05-10T00:38:00;2.43;;;2.23;;
21438;SDS011;10880;50.302;18.736;2023-05-10T00:40:35;2.50;;;2.30;;
21438;SDS011;10880;50.302;18.736;2023-05-10T00:43:36;2.83;;;2.30;;
21438;SDS011;10880;50.302;18.736;2023-05-10T00:46:13;2.80;;;2.13;;
21438;SDS011;10880;50.302;18.736;2023-05-10T00:49:09;2.70;;;2.50;;
21438;SDS011;10880;50.302;18.736;2023-05-10T00:51:43;2.17;;;1.97;;
21438;SDS011;10880;50.302;18.736;2023-05-10T00:54:39;2.37;;;2.17;;
21438;SDS011;10880;50.302;18.736;2023-05-10T00:57:16;2.90;;;2.40;;
21438;SDS011;10880;50.302;18.736;2023-05-10T01:00:09;2.97;;;2.23;;
21438;SDS011;10880;50.302;18.736;2023-05-10T01:02:46;2.30;;;2.10;;
21438;SDS011;10880;50.302;18.736;2023-05-10T01:05:41;3.00;;;2.30;;
21438;SDS011;10880;50.302;18.736;2023-05-10T01:08:14;2.37;;;2.10;;
21438;SDS011;10880;50.302;18.736;2023-05-10T01:11:08;2.33;;;2.13;;
21438;SDS011;10880;50.302;18.736;2023-05-10T01:13:55;4.57;;;2.50;;
21438;SDS011;10880;50.302;18.736;2023-05-10T01:16:49;3.00;;;2.70;;
21438;SDS011;10880;50.302;18.736;2023-05-10T01:19:24;2.50;;;2.30;;
21438;SDS011;10880;50.302;18.736;2023-05-10T01:22:35;3.43;;;2.20;;
21438;SDS011;10880;50.302;18.736;2023-05-10T01:29:19;2.50;;;2.10;;
21438;SDS011;10880;50.302;18.736;2023-05-10T01:35:10;2.30;;;2.10;;
21438;SDS011;10880;50.302;18.736;2023-05-10T01:38:01;2.43;;;2.23;;
21438;SDS011;10880;50.302;18.736;2023-05-10T01:44:01;2.30;;;2.10;;
21438;SDS011;10880;50.302;18.736;2023-05-10T01:47:01;2.67;;;2.40;;
21438;SDS011;10880;50.302;18.736;2023-05-10T01:49:57;2.40;;;2.20;;
21438;SDS011;10880;50.302;18.736;2023-05-10T01:52:58;2.53;;;2.30;;
21438;SDS011;10880;50.302;18.736;2023-05-10T01:55:33;2.57;;;2.37;;
21438;SDS011;10880;50.302;18.736;2023-05-10T01:58:31;2.77;;;2.43;;
21438;SDS011;10880;50.302;18.736;2023-05-10T02:01:14;2.37;;;2.17;;
21438;SDS011;10880;50.302;18.736;2023-05-10T02:04:01;3.03;;;2.43;;
21438;SDS011;10880;50.302;18.736;2023-05-10T02:06:43;3.13;;;2.47;;
21438;SDS011;10880;50.302;18.736;2023-05-10T02:09:32;2.50;;;2.20;;
21438;SDS011;10880;50.302;18.736;2023-05-10T02:12:19;2.40;;;2.20;;
21438;SDS011;10880;50.302;18.736;2023-05-10T02:15:18;2.70;;;2.13;;
21438;SDS011;10880;50.302;18.736;2023-05-10T02:17:54;2.80;;;2.20;;
21438;SDS011;10880;50.302;18.736;2023-05-10T02:20:50;2.40;;;2.17;;
21438;SDS011;10880;50.302;18.736;2023-05-10T02:23:25;2.73;;;2.40;;
21438;SDS011;10880;50.302;18.736;2023-05-10T02:26:21;2.40;;;2.20;;
21438;SDS011;10880;50.302;18.736;2023-05-10T02:28:59;2.77;;;2.37;;
21438;SDS011;10880;50.302;18.736;2023-05-10T02:31:55;2.23;;;2.10;;
21438;SDS011;10880;50.302;18.736;2023-05-10T02:34:31;2.40;;;2.20;;
21438;SDS011;10880;50.302;18.736;2023-05-10T02:37:25;2.73;;;2.50;;
21438;SDS011;10880;50.302;18.736;2023-05-10T02:39:59;2.20;;;2.00;;
21438;SDS011;10880;50.302;18.736;2023-05-10T02:42:56;3.80;;;2.50;;
21438;SDS011;10880;50.302;18.736;2023-05-10T02:45:33;2.67;;;2.23;;
21438;SDS011;10880;50.302;18.736;2023-05-10T02:48:32;2.60;;;2.40;;
21438;SDS011;10880;50.302;18.736;2023-05-10T02:51:07;3.67;;;2.60;;
21438;SDS011;10880;50.302;18.736;2023-05-10T02:54:12;2.47;;;2.27;;
21438;SDS011;10880;50.302;18.736;2023-05-10T02:56:56;3.17;;;2.50;;
21438;SDS011;10880;50.302;18.736;2023-05-10T02:59:50;3.23;;;2.77;;
21438;SDS011;10880;50.302;18.736;2023-05-10T03:02:23;2.90;;;2.40;;
21438;SDS011;10880;50.302;18.736;2023-05-10T03:05:16;2.40;;;2.20;;
21438;SDS011;10880;50.302;18.736;2023-05-10T03:12:20;3.30;;;2.53;;
21438;SDS011;10880;50.302;18.736;2023-05-10T03:22:29;3.60;;;2.80;;
21438;SDS011;10880;50.302;18.736;2023-05-10T03:25:10;3.90;;;2.47;;
21438;SDS011;10880;50.302;18.736;2023-05-10T03:28:05;4.10;;;2.60;;
21438;SDS011;10880;50.302;18.736;2023-05-10T03:30:38;4.40;;;2.60;;
21438;SDS011;10880;50.302;18.736;2023-05-10T03:33:33;4.17;;;2.97;;
21438;SDS011;10880;50.302;18.736;2023-05-10T03:36:06;3.20;;;2.70;;
21438;SDS011;10880;50.302;18.736;2023-05-10T03:39:08;2.90;;;2.50;;
21438;SDS011;10880;50.302;18.736;2023-05-10T03:41:47;5.87;;;2.63;;
21438;SDS011;10880;50.302;18.736;2023-05-10T03:44:40;3.43;;;2.60;;
21438;SDS011;10880;50.302;18.736;2023-05-10T03:47:13;4.50;;;2.90;;
21438;SDS011;10880;50.302;18.736;2023-05-10T03:50:06;2.93;;;2.53;;
21438;SDS011;10880;50.302;18.736;2023-05-10T03:52:40;5.60;;;3.00;;
21438;SDS011;10880;50.302;18.736;2023-05-10T03:55:37;4.13;;;2.40;;
21438;SDS011;10880;50.302;18.736;2023-05-10T03:58:11;3.67;;;2.40;;
21438;SDS011;10880;50.302;18.736;2023-05-10T04:01:03;2.93;;;2.57;;
21438;SDS011;10880;50.302;18.736;2023-05-10T04:03:39;3.00;;;2.40;;
21438;SDS011;10880;50.302;18.736;2023-05-10T04:06:35;4.60;;;3.20;;
21438;SDS011;10880;50.302;18.736;2023-05-10T04:09:10;3.80;;;2.70;;
21438;SDS011;10880;50.302;18.736;2023-05-10T04:12:04;4.63;;;3.20;;
21438;SDS011;10880;50.302;18.736;2023-05-10T04:14:40;3.30;;;2.90;;
21438;SDS011;10880;50.302;18.736;2023-05-10T04:17:33;3.70;;;2.50;;
21438;SDS011;10880;50.302;18.736;2023-05-10T04:20:08;3.80;;;3.00;;
21438;SDS011;10880;50.302;18.736;2023-05-10T04:23:02;3.90;;;2.37;;
21438;SDS011;10880;50.302;18.736;2023-05-10T04:25:36;2.80;;;2.60;;
21438;SDS011;10880;50.302;18.736;2023-05-10T04:28:29;4.07;;;2.37;;
21438;SDS011;10880;50.302;18.736;2023-05-10T04:33:58;2.80;;;2.50;;
21438;SDS011;10880;50.302;18.736;2023-05-10T04:36:31;3.00;;;2.70;;
21438;SDS011;10880;50.302;18.736;2023-05-10T04:39:24;2.50;;;2.30;;
21438;SDS011;10880;50.302;18.736;2023-05-10T04:41:57;3.37;;;2.67;;
21438;SDS011;10880;50.302;18.736;2023-05-10T04:44:50;2.60;;;2.40;;
21438;SDS011;10880;50.302;18.736;2023-05-10T04:47:27;3.80;;;2.50;;
21438;SDS011;10880;50.302;18.736;2023-05-10T04:50:22;3.50;;;2.60;;
21438;SDS011;10880;50.302;18.736;2023-05-10T04:52:57;3.90;;;2.83;;
21438;SDS011;10880;50.302;18.736;2023-05-10T04:55:50;3.33;;;2.63;;
21438;SDS011;10880;50.302;18.736;2023-05-10T04:58:23;3.17;;;2.73;;
21438;SDS011;10880;50.302;18.736;2023-05-10T05:01:16;2.60;;;2.40;;
21438;SDS011;10880;50.302;18.736;2023-05-10T05:03:49;4.33;;;3.30;;
21438;SDS011;10880;50.302;18.736;2023-05-10T05:06:42;3.73;;;3.27;;
21438;SDS011;10880;50.302;18.736;2023-05-10T05:09:15;3.33;;;2.90;;
21438;SDS011;10880;50.302;18.736;2023-05-10T05:12:08;5.43;;;2.90;;
21438;SDS011;10880;50.302;18.736;2023-05-10T05:15:02;3.20;;;2.47;;
21438;SDS011;10880;50.302;18.736;2023-05-10T05:17:38;3.60;;;2.80;;
21438;SDS011;10880;50.302;18.736;2023-05-10T05:20:32;3.47;;;2.60;;
21438;SDS011;10880;50.302;18.736;2023-05-10T05:23:08;3.67;;;2.50;;
21438;SDS011;10880;50.302;18.736;2023-05-10T05:26:03;4.23;;;2.83;;
21438;SDS011;10880;50.302;18.736;2023-05-10T05:28:38;4.60;;;2.60;;
21438;SDS011;10880;50.302;18.736;2023-05-10T05:31:31;3.60;;;2.70;;
21438;SDS011;10880;50.302;18.736;2023-05-10T05:34:04;2.80;;;2.53;;
21438;SDS011;10880;50.302;18.736;2023-05-10T05:36:59;4.57;;;2.93;;
21438;SDS011;10880;50.302;18.736;2023-05-10T05:39:32;3.57;;;2.87;;
21438;SDS011;10880;50.302;18.736;2023-05-10T05:42:31;2.70;;;2.50;;
21438;SDS011;10880;50.302;18.736;2023-05-10T05:45:07;2.40;;;2.20;;
21438;SDS011;10880;50.302;18.736;2023-05-10T05:48:00;2.47;;;2.27;;
21438;SDS011;10880;50.302;18.736;2023-05-10T05:50:33;2.90;;;2.37;;
21438;SDS011;10880;50.302;18.736;2023-05-10T05:53:26;3.13;;;2.30;;
21438;SDS011;10880;50.302;18.736;2023-05-10T05:55:59;3.10;;;2.80;;
21438;SDS011;10880;50.302;18.736;2023-05-10T05:58:53;5.57;;;3.50;;
21438;SDS011;10880;50.302;18.736;2023-05-10T06:01:26;2.93;;;2.60;;
21438;SDS011;10880;50.302;18.736;2023-05-10T06:04:19;4.27;;;3.20;;
21438;SDS011;10880;50.302;18.736;2023-05-10T06:06:54;3.13;;;2.53;;
21438;SDS011;10880;50.302;18.736;2023-05-10T06:09:47;2.83;;;2.30;;
21438;SDS011;10880;50.302;18.736;2023-05-10T06:12:21;3.00;;;2.37;;
21438;SDS011;10880;50.302;18.736;2023-05-10T06:15:13;3.53;;;2.80;;
21438;SDS011;10880;50.302;18.736;2023-05-10T06:17:48;3.23;;;2.80;;
21438;SDS011;10880;50.302;18.736;2023-05-10T06:20:41;2.37;;;2.17;;
21438;SDS011;10880;50.302;18.736;2023-05-10T06:23:15;4.13;;;2.53;;
21438;SDS011;10880;50.302;18.736;2023-05-10T06:26:08;2.40;;;2.20;;
21438;SDS011;10880;50.302;18.736;2023-05-10T06:28:42;2.07;;;1.93;;
21438;SDS011;10880;50.302;18.736;2023-05-10T06:31:35;2.43;;;2.23;;
21438;SDS011;10880;50.302;18.736;2023-05-10T06:34:08;2.80;;;2.40;;
21438;SDS011;10880;50.302;18.736;2023-05-10T06:37:02;3.90;;;2.60;;
21438;SDS011;10880;50.302;18.736;2023-05-10T06:39:36;2.40;;;2.20;;
21438;SDS011;10880;50.302;18.736;2023-05-10T06:42:36;2.67;;;2.23;;
21438;SDS011;10880;50.302;18.736;2023-05-10T06:45:10;2.90;;;2.10;;
21438;SDS011;10880;50.302;18.736;2023-05-10T06:48:05;2.70;;;2.37;;
21438;SDS011;10880;50.302;18.736;2023-05-10T06:50:42;2.47;;;2.27;;
21438;SDS011;10880;50.302;18.736;2023-05-10T06:53:35;2.80;;;2.40;;
21438;SDS011;10880;50.302;18.736;2023-05-10T06:56:08;2.40;;;2.20;;
21438;SDS011;10880;50.302;18.736;2023-05-10T06:59:03;2.57;;;2.33;;
21438;SDS011;10880;50.302;18.736;2023-05-10T07:01:36;2.10;;;2.00;;
21438;SDS011;10880;50.302;18.736;2023-05-10T07:04:32;2.40;;;2.13;;
21438;SDS011;10880;50.302;18.736;2023-05-10T07:07:07;4.00;;;2.27;;
21438;SDS011;10880;50.302;18.736;2023-05-10T07:10:02;3.50;;;2.30;;
21438;SDS011;10880;50.302;18.736;2023-05-10T07:12:36;2.77;;;2.07;;
21438;SDS011;10880;50.302;18.736;2023-05-10T07:15:32;3.57;;;2.20;;
21438;SDS011;10880;50.302;18.736;2023-05-10T07:18:27;2.20;;;2.00;;
21438;SDS011;10880;50.302;18.736;2023-05-10T07:21:24;2.23;;;1.90;;
21438;SDS011;10880;50.302;18.736;2023-05-10T07:24:00;3.03;;;1.90;;
21438;SDS011;10880;50.302;18.736;2023-05-10T07:26:57;2.70;;;2.00;;
21438;SDS011;10880;50.302;18.736;2023-05-10T07:29:59;6.30;;;2.30;;
21438;SDS011;10880;50.302;18.736;2023-05-10T07:32:52;2.30;;;1.97;;
21438;SDS011;10880;50.302;18.736;2023-05-10T07:35:25;1.80;;;1.70;;
21438;SDS011;10880;50.302;18.736;2023-05-10T07:38:18;1.97;;;1.83;;
21438;SDS011;10880;50.302;18.736;2023-05-10T07:40:51;1.93;;;1.83;;
21438;SDS011;10880;50.302;18.736;2023-05-10T07:43:45;2.10;;;1.90;;
21438;SDS011;10880;50.302;18.736;2023-05-10T07:46:19;2.03;;;1.83;;
21438;SDS011;10880;50.302;18.736;2023-05-10T07:49:13;1.90;;;1.80;;
21438;SDS011;10880;50.302;18.736;2023-05-10T07:51:46;3.03;;;1.80;;
21438;SDS011;10880;50.302;18.736;2023-05-10T07:54:40;2.57;;;1.97;;
21438;SDS011;10880;50.302;18.736;2023-05-10T07:57:15;1.80;;;1.70;;
21438;SDS011;10880;50.302;18.736;2023-05-10T08:00:16;3.03;;;1.87;;
21438;SDS011;10880;50.302;18.736;2023-05-10T08:02:53;1.97;;;1.70;;
21438;SDS011;10880;50.302;18.736;2023-05-10T08:05:47;2.00;;;1.70;;
21438;SDS011;10880;50.302;18.736;2023-05-10T08:08:28;1.90;;;1.80;;
21438;SDS011;10880;50.302;18.736;2023-05-10T08:11:24;2.00;;;1.80;;
21438;SDS011;10880;50.302;18.736;2023-05-10T08:14:05;1.70;;;1.60;;
21438;SDS011;10880;50.302;18.736;2023-05-10T08:17:08;1.60;;;1.50;;
21438;SDS011;10880;50.302;18.736;2023-05-10T08:19:43;1.80;;;1.70;;
21438;SDS011;10880;50.302;18.736;2023-05-10T08:22:40;1.80;;;1.70;;
21438;SDS011;10880;50.302;18.736;2023-05-10T08:25:20;1.90;;;1.80;;
21438;SDS011;10880;50.302;18.736;2023-05-10T08:28:21;1.90;;;1.80;;
21438;SDS011;10880;50.302;18.736;2023-05-10T08:31:00;1.70;;;1.60;;
21438;SDS011;10880;50.302;18.736;2023-05-10T08:34:36;2.00;;;1.80;;
21438;SDS011;10880;50.302;18.736;2023-05-10T08:37:18;1.60;;;1.50;;
21438;SDS011;10880;50.302;18.736;2023-05-10T08:40:09;1.70;;;1.60;;
21438;SDS011;10880;50.302;18.736;2023-05-10T08:42:55;1.70;;;1.60;;
21438;SDS011;10880;50.302;18.736;2023-05-10T08:45:48;1.43;;;1.37;;
21438;SDS011;10880;50.302;18.736;2023-05-10T08:48:32;1.67;;;1.57;;
21438;SDS011;10880;50.302;18.736;2023-05-10T08:51:30;1.63;;;1.53;;
21438;SDS011;10880;50.302;18.736;2023-05-10T08:54:16;4.20;;;1.70;;
21438;SDS011;10880;50.302;18.736;2023-05-10T08:57:07;1.80;;;1.70;;
21438;SDS011;10880;50.302;18.736;2023-05-10T08:59:55;2.00;;;1.80;;
21438;SDS011;10880;50.302;18.736;2023-05-10T09:02:46;1.60;;;1.50;;
21438;SDS011;10880;50.302;18.736;2023-05-10T09:05:31;2.57;;;1.70;;
21438;SDS011;10880;50.302;18.736;2023-05-10T09:08:17;1.60;;;1.50;;
21438;SDS011;10880;50.302;18.736;2023-05-10T09:11:01;1.50;;;1.40;;
21438;SDS011;10880;50.302;18.736;2023-05-10T09:13:51;2.40;;;1.60;;
21438;SDS011;10880;50.302;18.736;2023-05-10T09:16:37;1.77;;;1.67;;
21438;SDS011;10880;50.302;18.736;2023-05-10T09:19:44;1.80;;;1.70;;
21438;SDS011;10880;50.302;18.736;2023-05-10T09:22:36;1.40;;;1.30;;
21438;SDS011;10880;50.302;18.736;2023-05-10T09:25:17;1.90;;;1.80;;
21438;SDS011;10880;50.302;18.736;2023-05-10T09:28:11;1.90;;;1.80;;
21438;SDS011;10880;50.302;18.736;2023-05-10T09:30:56;2.67;;;1.80;;
21438;SDS011;10880;50.302;18.736;2023-05-10T09:33:46;1.80;;;1.70;;
21438;SDS011;10880;50.302;18.736;2023-05-10T09:36:31;1.70;;;1.60;;
21438;SDS011;10880;50.302;18.736;2023-05-10T09:39:16;2.33;;;1.60;;
21438;SDS011;10880;50.302;18.736;2023-05-10T09:41:58;2.00;;;1.90;;
21438;SDS011;10880;50.302;18.736;2023-05-10T09:44:44;1.83;;;1.73;;
21438;SDS011;10880;50.302;18.736;2023-05-10T09:47:25;1.80;;;1.70;;
21438;SDS011;10880;50.302;18.736;2023-05-10T09:50:13;3.53;;;1.40;;
21438;SDS011;10880;50.302;18.736;2023-05-10T09:52:56;1.70;;;1.60;;
21438;SDS011;10880;50.302;18.736;2023-05-10T09:55:52;1.50;;;1.40;;
21438;SDS011;10880;50.302;18.736;2023-05-10T09:58:36;1.90;;;1.80;;
21438;SDS011;10880;50.302;18.736;2023-05-10T10:01:27;1.50;;;1.40;;
21438;SDS011;10880;50.302;18.736;2023-05-10T10:04:14;4.40;;;1.40;;
21438;SDS011;10880;50.302;18.736;2023-05-10T10:07:04;1.40;;;1.30;;
21438;SDS011;10880;50.302;18.736;2023-05-10T10:09:44;1.67;;;1.57;;
21438;SDS011;10880;50.302;18.736;2023-05-10T10:12:33;2.07;;;1.70;;
21438;SDS011;10880;50.302;18.736;2023-05-10T10:15:14;1.67;;;1.57;;
21438;SDS011;10880;50.302;18.736;2023-05-10T10:18:03;1.50;;;1.40;;
21438;SDS011;10880;50.302;18.736;2023-05-10T10:20:44;1.70;;;1.30;;
21438;SDS011;10880;50.302;18.736;2023-05-10T10:23:35;1.60;;;1.50;;
21438;SDS011;10880;50.302;18.736;2023-05-10T10:26:23;1.70;;;1.60;;
21438;SDS011;10880;50.302;18.736;2023-05-10T10:32:01;1.67;;;1.57;;
21438;SDS011;10880;50.302;18.736;2023-05-10T10:35:19;1.33;;;1.23;;
21438;SDS011;10880;50.302;18.736;2023-05-10T10:38:02;1.30;;;1.20;;
21438;SDS011;10880;50.302;18.736;2023-05-10T10:41:01;1.33;;;1.27;;
21438;SDS011;10880;50.302;18.736;2023-05-10T10:50:09;1.53;;;1.43;;
21438;SDS011;10880;50.302;18.736;2023-05-10T10:52:57;1.40;;;1.30;;
21438;SDS011;10880;50.302;18.736;2023-05-10T10:56:02;1.57;;;1.47;;
21438;SDS011;10880;50.302;18.736;2023-05-10T10:58:59;1.80;;;1.57;;
21438;SDS011;10880;50.302;18.736;2023-05-10T11:01:41;1.50;;;1.40;;
21438;SDS011;10880;50.302;18.736;2023-05-10T11:04:35;1.40;;;1.30;;
21438;SDS011;10880;50.302;18.736;2023-05-10T11:07:23;1.40;;;1.30;;
21438;SDS011;10880;50.302;18.736;2023-05-10T11:10:10;1.30;;;1.20;;
21438;SDS011;10880;50.302;18.736;2023-05-10T11:15:59;2.20;;;2.00;;
21438;SDS011;10880;50.302;18.736;2023-05-10T11:24:55;1.67;;;1.57;;
21438;SDS011;10880;50.302;18.736;2023-05-10T11:27:49;1.47;;;1.30;;
21438;SDS011;10880;50.302;18.736;2023-05-10T11:30:26;1.60;;;1.47;;
21438;SDS011;10880;50.302;18.736;2023-05-10T11:33:20;3.10;;;1.87;;
21438;SDS011;10880;50.302;18.736;2023-05-10T11:35:53;1.90;;;1.80;;
21438;SDS011;10880;50.302;18.736;2023-05-10T11:38:48;4.03;;;2.03;;
21438;SDS011;10880;50.302;18.736;2023-05-10T11:41:23;1.70;;;1.60;;
21438;SDS011;10880;50.302;18.736;2023-05-10T11:44:16;1.67;;;1.30;;
21438;SDS011;10880;50.302;18.736;2023-05-10T11:46:49;1.30;;;1.20;;
21438;SDS011;10880;50.302;18.736;2023-05-10T11:49:46;1.53;;;1.40;;
21438;SDS011;10880;50.302;18.736;2023-05-10T11:52:20;2.07;;;1.50;;
21438;SDS011;10880;50.302;18.736;2023-05-10T11:55:16;1.60;;;1.50;;
21438;SDS011;10880;50.302;18.736;2023-05-10T11:57:52;1.30;;;1.20;;
21438;SDS011;10880;50.302;18.736;2023-05-10T12:00:50;1.40;;;1.30;;
21438;SDS011;10880;50.302;18.736;2023-05-10T12:03:27;1.47;;;1.37;;
21438;SDS011;10880;50.302;18.736;2023-05-10T12:06:21;1.20;;;1.20;;
21438;SDS011;10880;50.302;18.736;2023-05-10T12:08:58;4.30;;;1.50;;
21438;SDS011;10880;50.302;18.736;2023-05-10T12:11:58;1.40;;;1.30;;
21438;SDS011;10880;50.302;18.736;2023-05-10T12:14:35;1.20;;;1.10;;
21438;SDS011;10880;50.302;18.736;2023-05-10T12:17:28;1.53;;;1.43;;
21438;SDS011;10880;50.302;18.736;2023-05-10T12:20:17;1.30;;;1.20;;
21438;SDS011;10880;50.302;18.736;2023-05-10T12:23:20;1.60;;;1.50;;
21438;SDS011;10880;50.302;18.736;2023-05-10T12:26:02;2.20;;;1.40;;
21438;SDS011;10880;50.302;18.736;2023-05-10T12:29:16;2.13;;;1.33;;
21438;SDS011;10880;50.302;18.736;2023-05-10T12:31:57;2.17;;;1.53;;
21438;SDS011;10880;50.302;18.736;2023-05-10T12:34:51;2.67;;;1.50;;
21438;SDS011;10880;50.302;18.736;2023-05-10T12:37:27;1.57;;;1.47;;
21438;SDS011;10880;50.302;18.736;2023-05-10T12:40:25;1.80;;;1.60;;
21438;SDS011;10880;50.302;18.736;2023-05-10T12:43:00;3.10;;;1.63;;
21438;SDS011;10880;50.302;18.736;2023-05-10T12:45:54;2.20;;;1.67;;
21438;SDS011;10880;50.302;18.736;2023-05-10T12:48:29;2.23;;;2.00;;
21438;SDS011;10880;50.302;18.736;2023-05-10T12:51:22;1.83;;;1.73;;
21438;SDS011;10880;50.302;18.736;2023-05-10T12:53:55;1.70;;;1.60;;
21438;SDS011;10880;50.302;18.736;2023-05-10T12:56:49;1.53;;;1.43;;
21438;SDS011;10880;50.302;18.736;2023-05-10T12:59:23;1.50;;;1.40;;
21438;SDS011;10880;50.302;18.736;2023-05-10T13:02:16;1.57;;;1.47;;
21438;SDS011;10880;50.302;18.736;2023-05-10T13:04:55;1.50;;;1.40;;
21438;SDS011;10880;50.302;18.736;2023-05-10T13:07:48;1.10;;;1.10;;
21438;SDS011;10880;50.302;18.736;2023-05-10T13:10:21;2.63;;;1.33;;
21438;SDS011;10880;50.302;18.736;2023-05-10T13:13:15;1.63;;;1.40;;
21438;SDS011;10880;50.302;18.736;2023-05-10T13:15:48;1.70;;;1.60;;
21438;SDS011;10880;50.302;18.736;2023-05-10T13:18:42;1.50;;;1.40;;
21438;SDS011;10880;50.302;18.736;2023-05-10T13:21:15;1.27;;;1.20;;
21438;SDS011;10880;50.302;18.736;2023-05-10T13:24:11;1.23;;;1.20;;
21438;SDS011;10880;50.302;18.736;2023-05-10T13:26:49;1.10;;;1.00;;
21438;SDS011;10880;50.302;18.736;2023-05-10T13:29:42;1.80;;;1.57;;
21438;SDS011;10880;50.302;18.736;2023-05-10T13:32:16;1.30;;;1.20;;
21438;SDS011;10880;50.302;18.736;2023-05-10T13:35:13;1.40;;;1.30;;
21438;SDS011;10880;50.302;18.736;2023-05-10T13:37:46;1.70;;;1.60;;
21438;SDS011;10880;50.302;18.736;2023-05-10T13:40:43;1.50;;;1.40;;
21438;SDS011;10880;50.302;18.736;2023-05-10T13:43:20;1.83;;;1.73;;
21438;SDS011;10880;50.302;18.736;2023-05-10T13:46:16;1.40;;;1.30;;
21438;SDS011;10880;50.302;18.736;2023-05-10T13:48:53;1.40;;;1.30;;
21438;SDS011;10880;50.302;18.736;2023-05-10T13:51:52;1.17;;;1.17;;
21438;SDS011;10880;50.302;18.736;2023-05-10T13:54:28;1.40;;;1.30;;
21438;SDS011;10880;50.302;18.736;2023-05-10T13:57:21;2.10;;;1.40;;
21438;SDS011;10880;50.302;18.736;2023-05-10T13:59:55;1.50;;;1.40;;
21438;SDS011;10880;50.302;18.736;2023-05-10T14:02:53;1.50;;;1.40;;
21438;SDS011;10880;50.302;18.736;2023-05-10T14:05:27;1.37;;;1.27;;
21438;SDS011;10880;50.302;18.736;2023-05-10T14:08:20;1.73;;;1.50;;
21438;SDS011;10880;50.302;18.736;2023-05-10T14:10:54;1.83;;;1.40;;
21438;SDS011;10880;50.302;18.736;2023-05-10T14:13:48;1.40;;;1.30;;
21438;SDS011;10880;50.302;18.736;2023-05-10T14:16:42;1.73;;;1.50;;
21438;SDS011;10880;50.302;18.736;2023-05-10T14:19:17;1.60;;;1.50;;
21438;SDS011;10880;50.302;18.736;2023-05-10T14:22:12;1.60;;;1.43;;
21438;SDS011;10880;50.302;18.736;2023-05-10T14:24:46;1.23;;;1.20;;
21438;SDS011;10880;50.302;18.736;2023-05-10T14:27:44;1.10;;;1.10;;
21438;SDS011;10880;50.302;18.736;2023-05-10T14:30:20;1.50;;;1.40;;
21438;SDS011;10880;50.302;18.736;2023-05-10T14:33:26;2.80;;;1.50;;
21438;SDS011;10880;50.302;18.736;2023-05-10T14:35:59;1.50;;;1.40;;
21438;SDS011;10880;50.302;18.736;2023-05-10T14:38:52;1.40;;;1.30;;
21438;SDS011;10880;50.302;18.736;2023-05-10T14:41:25;1.60;;;1.50;;
21438;SDS011;10880;50.302;18.736;2023-05-10T14:44:19;1.40;;;1.30;;
21438;SDS011;10880;50.302;18.736;2023-05-10T14:46:52;1.23;;;1.20;;
21438;SDS011;10880;50.302;18.736;2023-05-10T14:49:46;1.40;;;1.30;;
21438;SDS011;10880;50.302;18.736;2023-05-10T14:52:21;1.30;;;1.20;;
21438;SDS011;10880;50.302;18.736;2023-05-10T14:55:14;1.40;;;1.30;;
21438;SDS011;10880;50.302;18.736;2023-05-10T14:57:48;2.67;;;1.40;;
21438;SDS011;10880;50.302;18.736;2023-05-10T15:00:45;1.27;;;1.17;;
21438;SDS011;10880;50.302;18.736;2023-05-10T15:03:18;1.93;;;1.47;;
21438;SDS011;10880;50.302;18.736;2023-05-10T15:06:13;1.60;;;1.50;;
21438;SDS011;10880;50.302;18.736;2023-05-10T15:08:54;1.57;;;1.47;;
21438;SDS011;10880;50.302;18.736;2023-05-10T15:11:47;2.53;;;1.40;;
21438;SDS011;10880;50.302;18.736;2023-05-10T15:14:22;1.50;;;1.40;;
21438;SDS011;10880;50.302;18.736;2023-05-10T15:17:19;2.27;;;1.50;;
21438;SDS011;10880;50.302;18.736;2023-05-10T15:19:52;1.50;;;1.40;;
21438;SDS011;10880;50.302;18.736;2023-05-10T15:22:45;1.27;;;1.20;;
21438;SDS011;10880;50.302;18.736;2023-05-10T15:25:27;1.30;;;1.20;;
21438;SDS011;10880;50.302;18.736;2023-05-10T15:28:24;1.10;;;1.10;;
21438;SDS011;10880;50.302;18.736;2023-05-10T15:30:57;1.40;;;1.30;;
21438;SDS011;10880;50.302;18.736;2023-05-10T15:33:56;1.50;;;1.30;;
21438;SDS011;10880;50.302;18.736;2023-05-10T15:36:31;1.30;;;1.30;;
21438;SDS011;10880;50.302;18.736;2023-05-10T15:39:26;1.47;;;1.37;;
21438;SDS011;10880;50.302;18.736;2023-05-10T15:41:59;1.13;;;1.13;;
21438;SDS011;10880;50.302;18.736;2023-05-10T15:44:55;1.37;;;1.27;;
21438;SDS011;10880;50.302;18.736;2023-05-10T15:47:30;1.10;;;1.10;;
21438;SDS011;10880;50.302;18.736;2023-05-10T15:50:24;3.93;;;1.60;;
21438;SDS011;10880;50.302;18.736;2023-05-10T15:52:57;1.83;;;1.30;;
21438;SDS011;10880;50.302;18.736;2023-05-10T15:55:50;1.50;;;1.40;;
21438;SDS011;10880;50.302;18.736;2023-05-10T15:58:23;1.50;;;1.40;;
21438;SDS011;10880;50.302;18.736;2023-05-10T16:01:16;1.57;;;1.40;;
21438;SDS011;10880;50.302;18.736;2023-05-10T16:03:52;2.40;;;1.70;;
21438;SDS011;10880;50.302;18.736;2023-05-10T16:06:45;1.97;;;1.60;;
21438;SDS011;10880;50.302;18.736;2023-05-10T16:09:20;1.60;;;1.50;;
21438;SDS011;10880;50.302;18.736;2023-05-10T16:12:14;1.67;;;1.53;;
21438;SDS011;10880;50.302;18.736;2023-05-10T16:14:47;1.73;;;1.40;;
21438;SDS011;10880;50.302;18.736;2023-05-10T16:17:41;1.50;;;1.40;;
21438;SDS011;10880;50.302;18.736;2023-05-10T16:20:14;1.70;;;1.60;;
21438;SDS011;10880;50.302;18.736;2023-05-10T16:23:10;1.50;;;1.40;;
21438;SDS011;10880;50.302;18.736;2023-05-10T16:25:44;1.33;;;1.23;;
21438;SDS011;10880;50.302;18.736;2023-05-10T16:28:36;1.50;;;1.40;;
21438;SDS011;10880;50.302;18.736;2023-05-10T16:31:11;1.23;;;1.20;;
21438;SDS011;10880;50.302;18.736;2023-05-10T16:34:04;1.07;;;1.07;;
21438;SDS011;10880;50.302;18.736;2023-05-10T16:36:38;1.17;;;1.13;;
21438;SDS011;10880;50.302;18.736;2023-05-10T16:39:32;1.20;;;1.10;;
21438;SDS011;10880;50.302;18.736;2023-05-10T16:42:04;1.30;;;1.20;;
21438;SDS011;10880;50.302;18.736;2023-05-10T16:44:57;1.17;;;1.10;;
21438;SDS011;10880;50.302;18.736;2023-05-10T16:47:41;2.67;;;1.07;;
21438;SDS011;10880;50.302;18.736;2023-05-10T16:50:35;1.90;;;1.57;;
21438;SDS011;10880;50.302;18.736;2023-05-10T16:53:08;1.40;;;1.20;;
21438;SDS011;10880;50.302;18.736;2023-05-10T16:56:05;1.50;;;1.40;;
21438;SDS011;10880;50.302;18.736;2023-05-10T16:58:38;1.10;;;1.10;;
21438;SDS011;10880;50.302;18.736;2023-05-10T17:01:33;2.17;;;1.30;;
21438;SDS011;10880;50.302;18.736;2023-05-10T17:04:08;1.60;;;1.40;;
21438;SDS011;10880;50.302;18.736;2023-05-10T17:07:09;1.37;;;1.27;;
21438;SDS011;10880;50.302;18.736;2023-05-10T17:09:44;1.23;;;1.10;;